sensor_id;sensor_type;location;lat;lon;timestamp;pressure;altitude;pressure_sealevel;temperature;humidity
52249;BME280;38541;48.130;8.378;2024-03-22T00:01:40;93444.00;;;8.54;68.27
52249;BME280;38541;48.130;8.378;2024-03-22T00:04:06;93443.88;;;8.49;68.45
52249;BME280;38541;48.130;8.378;2024-03-22T00:06:31;93441.50;;;8.48;68.61
52249;BME280;38541;48.130;8.378;2024-03-22T00:08:57;93441.19;;;8.44;69.16
52249;BME280;38541;48.130;8.378;2024-03-22T00:11:22;93442.63;;;8.40;69.07
52249;BME280;38541;48.130;8.378;2024-03-22T00:13:48;93442.06;;;8.38;68.50
52249;BME280;38541;48.130;8.378;2024-03-22T00:16:14;93435.16;;;8.32;68.98
52249;BME280;38541;48.130;8.378;2024-03-22T00:18:39;93436.28;;;8.36;69.12
52249;BME280;38541;48.130;8.378;2024-03-22T00:21:05;93435.94;;;8.32;68.69
52249;BME280;38541;48.130;8.378;2024-03-22T00:23:30;93433.56;;;8.31;68.90
52249;BME280;38541;48.130;8.378;2024-03-22T00:25:56;93431.88;;;8.24;68.94
52249;BME280;38541;48.130;8.378;2024-03-22T00:28:21;93434.03;;;8.27;68.75
52249;BME280;38541;48.130;8.378;2024-03-22T00:30:47;93426.41;;;8.26;68.90
52249;BME280;38541;48.130;8.378;2024-03-22T00:33:12;93422.88;;;8.20;68.25
52249;BME280;38541;48.130;8.378;2024-03-22T00:35:38;93417.63;;;8.20;68.25
52249;BME280;38541;48.130;8.378;2024-03-22T00:38:03;93414.44;;;8.18;68.70
52249;BME280;38541;48.130;8.378;2024-03-22T00:40:29;93415.47;;;8.17;68.76
52249;BME280;38541;48.130;8.378;2024-03-22T00:42:55;93420.50;;;8.19;68.98
52249;BME280;38541;48.130;8.378;2024-03-22T00:45:20;93413.31;;;8.14;68.75
52249;BME280;38541;48.130;8.378;2024-03-22T00:47:46;93414.09;;;8.14;69.08
52249;BME280;38541;48.130;8.378;2024-03-22T00:50:11;93409.69;;;8.15;69.19
52249;BME280;38541;48.130;8.378;2024-03-22T00:52:38;93414.09;;;8.14;69.61
52249;BME280;38541;48.130;8.378;2024-03-22T00:55:04;93410.91;;;8.12;69.56
52249;BME280;38541;48.130;8.378;2024-03-22T00:57:30;93407.06;;;8.15;69.59
52249;BME280;38541;48.130;8.378;2024-03-22T00:59:56;93401.25;;;8.13;69.65
52249;BME280;38541;48.130;8.378;2024-03-22T01:02:22;93398.88;;;8.11;69.26
52249;BME280;38541;48.130;8.378;2024-03-22T01:04:48;93394.44;;;8.12;69.54
52249;BME280;38541;48.130;8.378;2024-03-22T01:07:14;93394.44;;;8.12;69.11
52249;BME280;38541;48.130;8.378;2024-03-22T01:09:39;93396.81;;;8.13;69.59
52249;BME280;38541;48.130;8.378;2024-03-22T01:12:05;93390.00;;;8.12;69.35
52249;BME280;38541;48.130;8.378;2024-03-22T01:14:31;93388.41;;;8.11;69.63
52249;BME280;38541;48.130;8.378;2024-03-22T01:16:57;93391.47;;;8.08;69.94
52249;BME280;38541;48.130;8.378;2024-03-22T01:19:22;93390.22;;;8.11;70.10
52249;BME280;38541;48.130;8.378;2024-03-22T01:21:49;93390.91;;;8.06;69.90
52249;BME280;38541;48.130;8.378;2024-03-22T01:24:14;93385.91;;;8.05;69.81
52249;BME280;38541;48.130;8.378;2024-03-22T01:26:40;93390.69;;;8.08;70.24
52249;BME280;38541;48.130;8.378;2024-03-22T01:29:05;93387.63;;;8.11;69.67
52249;BME280;38541;48.130;8.378;2024-03-22T01:31:31;93389.66;;;8.09;69.62
52249;BME280;38541;48.130;8.378;2024-03-22T01:33:56;93386.03;;;8.10;69.38
52249;BME280;38541;48.130;8.378;2024-03-22T01:36:22;93379.66;;;8.06;69.66
52249;BME280;38541;48.130;8.378;2024-03-22T01:38:48;93370.78;;;8.07;69.84
52249;BME280;38541;48.130;8.378;2024-03-22T01:41:13;93372.81;;;8.05;69.78
52249;BME280;38541;48.130;8.378;2024-03-22T01:43:40;93368.72;;;8.09;69.81
52249;BME280;38541;48.130;8.378;2024-03-22T01:46:07;93375.09;;;8.13;69.69
52249;BME280;38541;48.130;8.378;2024-03-22T01:48:34;93366.69;;;8.11;69.51
52249;BME280;38541;48.130;8.378;2024-03-22T01:51:00;93365.19;;;8.15;69.56
52249;BME280;38541;48.130;8.378;2024-03-22T01:53:26;93357.13;;;8.17;69.70
52249;BME280;38541;48.130;8.378;2024-03-22T01:55:52;93352.56;;;8.12;69.15
52249;BME280;38541;48.130;8.378;2024-03-22T01:58:18;93346.44;;;8.06;70.20
52249;BME280;38541;48.130;8.378;2024-03-22T02:00:43;93348.69;;;8.03;70.28
52249;BME280;38541;48.130;8.378;2024-03-22T02:03:09;93343.81;;;8.06;70.11
52249;BME280;38541;48.130;8.378;2024-03-22T02:05:35;93340.63;;;8.04;69.43
52249;BME280;38541;48.130;8.378;2024-03-22T02:08:00;93342.69;;;8.02;69.87
52249;BME280;38541;48.130;8.378;2024-03-22T02:10:26;93345.53;;;8.00;69.22
52249;BME280;38541;48.130;8.378;2024-03-22T02:12:52;93332.91;;;7.97;69.33
52249;BME280;38541;48.130;8.378;2024-03-22T02:15:17;93325.53;;;7.94;69.49
52249;BME280;38541;48.130;8.378;2024-03-22T02:17:43;93328.34;;;7.93;69.56
52249;BME280;38541;48.130;8.378;2024-03-22T02:20:08;93322.81;;;7.89;69.53
52249;BME280;38541;48.130;8.378;2024-03-22T02:22:35;93321.44;;;7.87;69.82
52249;BME280;38541;48.130;8.378;2024-03-22T02:25:01;93328.94;;;7.83;69.79
52249;BME280;38541;48.130;8.378;2024-03-22T02:27:26;93329.88;;;7.77;70.07
52249;BME280;38541;48.130;8.378;2024-03-22T02:29:52;93329.22;;;7.69;69.93
52249;BME280;38541;48.130;8.378;2024-03-22T02:32:17;93317.59;;;7.65;70.04
52249;BME280;38541;48.130;8.378;2024-03-22T02:34:43;93324.66;;;7.65;70.34
52249;BME280;38541;48.130;8.378;2024-03-22T02:37:09;93323.28;;;7.62;70.25
52249;BME280;38541;48.130;8.378;2024-03-22T02:39:34;93316.72;;;7.60;70.39
52249;BME280;38541;48.130;8.378;2024-03-22T02:42:00;93315.34;;;7.57;70.02
52249;BME280;38541;48.130;8.378;2024-03-22T02:44:25;93314.53;;;7.56;70.83
52249;BME280;38541;48.130;8.378;2024-03-22T02:46:51;93303.19;;;7.51;71.20
52249;BME280;38541;48.130;8.378;2024-03-22T02:49:16;93294.53;;;7.50;71.73
52249;BME280;38541;48.130;8.378;2024-03-22T02:51:42;93296.94;;;7.52;71.57
52249;BME280;38541;48.130;8.378;2024-03-22T02:54:07;93291.69;;;7.52;70.87
52249;BME280;38541;48.130;8.378;2024-03-22T02:56:33;93294.78;;;7.49;69.85
52249;BME280;38541;48.130;8.378;2024-03-22T02:58:58;93292.97;;;7.37;69.32
52249;BME280;38541;48.130;8.378;2024-03-22T03:01:24;93290.00;;;7.34;69.11
52249;BME280;38541;48.130;8.378;2024-03-22T03:03:49;93290.66;;;7.29;69.58
52249;BME280;38541;48.130;8.378;2024-03-22T03:06:15;93284.00;;;7.21;69.64
52249;BME280;38541;48.130;8.378;2024-03-22T03:08:42;93284.41;;;7.18;69.31
52249;BME280;38541;48.130;8.378;2024-03-22T03:11:07;93284.41;;;7.18;69.51
52249;BME280;38541;48.130;8.378;2024-03-22T03:13:33;93286.00;;;7.19;69.62
52249;BME280;38541;48.130;8.378;2024-03-22T03:15:59;93287.72;;;7.13;69.99
52249;BME280;38541;48.130;8.378;2024-03-22T03:18:24;93288.16;;;7.10;70.10
52249;BME280;38541;48.130;8.378;2024-03-22T03:20:50;93281.03;;;7.06;70.33
52249;BME280;38541;48.130;8.378;2024-03-22T03:23:15;93277.84;;;7.04;70.70
52249;BME280;38541;48.130;8.378;2024-03-22T03:25:41;93277.59;;;7.05;70.82
52249;BME280;38541;48.130;8.378;2024-03-22T03:28:06;93276.59;;;7.06;71.13
52249;BME280;38541;48.130;8.378;2024-03-22T03:30:34;93277.16;;;7.08;71.41
52249;BME280;38541;48.130;8.378;2024-03-22T03:33:00;93272.47;;;7.10;71.80
52249;BME280;38541;48.130;8.378;2024-03-22T03:35:26;93268.28;;;7.09;72.08
52249;BME280;38541;48.130;8.378;2024-03-22T03:37:52;93275.56;;;7.07;72.28
52249;BME280;38541;48.130;8.378;2024-03-22T03:40:18;93263.88;;;7.10;72.58
52249;BME280;38541;48.130;8.378;2024-03-22T03:42:44;93266.84;;;7.13;72.32
52249;BME280;38541;48.130;8.378;2024-03-22T03:45:09;93260.69;;;7.20;71.94
52249;BME280;38541;48.130;8.378;2024-03-22T03:47:35;93262.50;;;7.19;71.12
52249;BME280;38541;48.130;8.378;2024-03-22T03:50:00;93256.03;;;7.22;71.22
52249;BME280;38541;48.130;8.378;2024-03-22T03:52:26;93252.63;;;7.21;71.21
52249;BME280;38541;48.130;8.378;2024-03-22T03:54:51;93255.69;;;7.18;71.77
52249;BME280;38541;48.130;8.378;2024-03-22T03:57:17;93252.03;;;7.19;72.22
52249;BME280;38541;48.130;8.378;2024-03-22T03:59:42;93248.44;;;7.20;72.45
52249;BME280;38541;48.130;8.378;2024-03-22T04:02:08;93249.22;;;7.21;71.91
52249;BME280;38541;48.130;8.378;2024-03-22T04:04:33;93241.59;;;7.19;71.75
52249;BME280;38541;48.130;8.378;2024-03-22T04:06:59;93241.94;;;7.23;72.12
52249;BME280;38541;48.130;8.378;2024-03-22T04:09:25;93244.34;;;7.24;72.51
52249;BME280;38541;48.130;8.378;2024-03-22T04:11:50;93238.63;;;7.27;72.12
52249;BME280;38541;48.130;8.378;2024-03-22T04:14:16;93240.56;;;7.32;72.54
52249;BME280;38541;48.130;8.378;2024-03-22T04:16:41;93235.78;;;7.29;71.98
52249;BME280;38541;48.130;8.378;2024-03-22T04:19:07;93235.47;;;7.25;72.05
52249;BME280;38541;48.130;8.378;2024-03-22T04:21:33;93232.59;;;7.27;71.85
52249;BME280;38541;48.130;8.378;2024-03-22T04:23:58;93225.31;;;7.29;72.11
52249;BME280;38541;48.130;8.378;2024-03-22T04:26:24;93230.56;;;7.29;72.01
52249;BME280;38541;48.130;8.378;2024-03-22T04:28:49;93223.31;;;7.31;72.02
52249;BME280;38541;48.130;8.378;2024-03-22T04:31:15;93225.69;;;7.33;72.55
52249;BME280;38541;48.130;8.378;2024-03-22T04:33:41;93227.72;;;7.31;72.36
52249;BME280;38541;48.130;8.378;2024-03-22T04:36:07;93226.94;;;7.30;72.50
52249;BME280;38541;48.130;8.378;2024-03-22T04:38:35;93231.72;;;7.33;72.50
52249;BME280;38541;48.130;8.378;2024-03-22T04:41:00;93234.06;;;7.35;72.58
52249;BME280;38541;48.130;8.378;2024-03-22T04:43:27;93233.88;;;7.36;72.38
52249;BME280;38541;48.130;8.378;2024-03-22T04:45:53;93222.03;;;7.34;72.61
52249;BME280;38541;48.130;8.378;2024-03-22T04:48:20;93230.44;;;7.36;72.37
52249;BME280;38541;48.130;8.378;2024-03-22T04:50:50;93228.38;;;7.38;72.70
52249;BME280;38541;48.130;8.378;2024-03-22T04:53:16;93225.78;;;7.38;72.38
52249;BME280;38541;48.130;8.378;2024-03-22T04:55:43;93229.66;;;7.35;72.62
52249;BME280;38541;48.130;8.378;2024-03-22T04:58:17;93229.19;;;7.38;72.99
52249;BME280;38541;48.130;8.378;2024-03-22T05:00:44;93230.78;;;7.39;72.44
52249;BME280;38541;48.130;8.378;2024-03-22T05:03:10;93225.09;;;7.42;72.06
52249;BME280;38541;48.130;8.378;2024-03-22T05:05:36;93223.50;;;7.41;71.92
52249;BME280;38541;48.130;8.378;2024-03-22T05:08:02;93223.03;;;7.45;71.93
52249;BME280;38541;48.130;8.378;2024-03-22T05:10:29;93228.28;;;7.45;71.81
52249;BME280;38541;48.130;8.378;2024-03-22T05:12:55;93217.81;;;7.45;71.97
52249;BME280;38541;48.130;8.378;2024-03-22T05:15:21;93217.03;;;7.44;72.08
52249;BME280;38541;48.130;8.378;2024-03-22T05:17:47;93222.56;;;7.48;71.75
52249;BME280;38541;48.130;8.378;2024-03-22T05:20:12;93212.72;;;7.50;72.49
52249;BME280;38541;48.130;8.378;2024-03-22T05:22:38;93216.91;;;7.51;71.96
52249;BME280;38541;48.130;8.378;2024-03-22T05:25:04;93213.16;;;7.47;72.05
52249;BME280;38541;48.130;8.378;2024-03-22T05:27:33;93211.56;;;7.46;72.43
52249;BME280;38541;48.130;8.378;2024-03-22T05:29:59;93212.59;;;7.45;72.49
52249;BME280;38541;48.130;8.378;2024-03-22T05:32:25;93214.63;;;7.42;72.92
52249;BME280;38541;48.130;8.378;2024-03-22T05:34:51;93207.03;;;7.41;72.77
52249;BME280;38541;48.130;8.378;2024-03-22T05:37:17;93203.16;;;7.43;73.04
52249;BME280;38541;48.130;8.378;2024-03-22T05:39:43;93211.47;;;7.40;72.52
52249;BME280;38541;48.130;8.378;2024-03-22T05:42:08;93213.03;;;7.41;72.40
52249;BME280;38541;48.130;8.378;2024-03-22T05:44:34;93208.63;;;7.42;72.43
52249;BME280;38541;48.130;8.378;2024-03-22T05:47:00;93213.03;;;7.41;72.34
52249;BME280;38541;48.130;8.378;2024-03-22T05:49:26;93204.19;;;7.42;72.08
52249;BME280;38541;48.130;8.378;2024-03-22T05:51:52;93203.06;;;7.38;72.05
52249;BME280;38541;48.130;8.378;2024-03-22T05:54:17;93202.50;;;7.36;72.88
52249;BME280;38541;48.130;8.378;2024-03-22T05:56:43;93213.97;;;7.35;73.17
52249;BME280;38541;48.130;8.378;2024-03-22T05:59:08;93205.09;;;7.36;72.62
52249;BME280;38541;48.130;8.378;2024-03-22T06:01:36;93206.69;;;7.37;72.25
52249;BME280;38541;48.130;8.378;2024-03-22T06:04:01;93203.06;;;7.38;72.18
52249;BME280;38541;48.130;8.378;2024-03-22T06:06:27;93204.66;;;7.39;71.65
52249;BME280;38541;48.130;8.378;2024-03-22T06:08:53;93203.06;;;7.38;71.77
52249;BME280;38541;48.130;8.378;2024-03-22T06:11:20;93198.28;;;7.35;72.45
52249;BME280;38541;48.130;8.378;2024-03-22T06:13:47;93208.28;;;7.38;72.57
52249;BME280;38541;48.130;8.378;2024-03-22T06:16:12;93203.75;;;7.34;71.75
52249;BME280;38541;48.130;8.378;2024-03-22T06:18:38;93202.72;;;7.35;71.62
52249;BME280;38541;48.130;8.378;2024-03-22T06:21:04;93203.19;;;7.32;71.52
52249;BME280;38541;48.130;8.378;2024-03-22T06:23:31;93199.31;;;7.34;71.38
52249;BME280;38541;48.130;8.378;2024-03-22T06:25:56;93199.88;;;7.36;71.42
52249;BME280;38541;48.130;8.378;2024-03-22T06:28:22;93197.84;;;7.38;72.15
52249;BME280;38541;48.130;8.378;2024-03-22T06:30:49;93193.38;;;7.39;72.11
52249;BME280;38541;48.130;8.378;2024-03-22T06:33:14;93189.88;;;7.45;72.65
52249;BME280;38541;48.130;8.378;2024-03-22T06:35:43;93189.41;;;7.48;71.83
52249;BME280;38541;48.130;8.378;2024-03-22T06:38:09;93185.97;;;7.48;72.19
52249;BME280;38541;48.130;8.378;2024-03-22T06:40:35;93187.59;;;7.49;72.12
52249;BME280;38541;48.130;8.378;2024-03-22T06:43:01;93187.91;;;7.52;72.31
52249;BME280;38541;48.130;8.378;2024-03-22T06:45:26;93183.56;;;7.58;72.20
52249;BME280;38541;48.130;8.378;2024-03-22T06:47:52;93187.09;;;7.64;72.57
52249;BME280;38541;48.130;8.378;2024-03-22T06:50:17;93182.75;;;7.69;73.05
52249;BME280;38541;48.130;8.378;2024-03-22T06:52:43;93183.19;;;7.78;72.82
52249;BME280;38541;48.130;8.378;2024-03-22T06:55:09;93182.00;;;7.86;72.49
52249;BME280;38541;48.130;8.378;2024-03-22T06:57:35;93179.16;;;7.88;72.34
52249;BME280;38541;48.130;8.378;2024-03-22T07:00:00;93175.28;;;7.90;71.88
52249;BME280;38541;48.130;8.378;2024-03-22T07:02:26;93180.94;;;7.99;72.36
52249;BME280;38541;48.130;8.378;2024-03-22T07:04:51;93182.03;;;8.03;72.83
52249;BME280;38541;48.130;8.378;2024-03-22T07:07:20;93173.03;;;8.11;72.52
52249;BME280;38541;48.130;8.378;2024-03-22T07:09:45;93174.69;;;8.17;72.62
52249;BME280;38541;48.130;8.378;2024-03-22T07:12:13;93183.19;;;8.24;72.81
52249;BME280;38541;48.130;8.378;2024-03-22T07:14:38;93174.31;;;8.25;72.63
52249;BME280;38541;48.130;8.378;2024-03-22T07:17:04;93184.88;;;8.31;72.94
52249;BME280;38541;48.130;8.378;2024-03-22T07:19:30;93183.34;;;8.35;73.32
52249;BME280;38541;48.130;8.378;2024-03-22T07:21:56;93185.03;;;8.41;73.13
52249;BME280;38541;48.130;8.378;2024-03-22T07:24:23;93186.25;;;8.50;73.58
52249;BME280;38541;48.130;8.378;2024-03-22T07:26:49;93186.34;;;8.55;73.35
52249;BME280;38541;48.130;8.378;2024-03-22T07:29:15;93179.13;;;8.63;73.33
52249;BME280;38541;48.130;8.378;2024-03-22T07:31:40;93172.94;;;8.69;73.32
52249;BME280;38541;48.130;8.378;2024-03-22T07:34:06;93177.53;;;8.79;72.97
52249;BME280;38541;48.130;8.378;2024-03-22T07:36:31;93171.56;;;8.83;73.01
52249;BME280;38541;48.130;8.378;2024-03-22T07:38:57;93173.78;;;8.92;72.75
52249;BME280;38541;48.130;8.378;2024-03-22T07:41:23;93163.69;;;9.01;72.47
52249;BME280;38541;48.130;8.378;2024-03-22T07:43:49;93169.31;;;9.09;72.70
52249;BME280;38541;48.130;8.378;2024-03-22T07:46:14;93173.06;;;9.19;72.03
52249;BME280;38541;48.130;8.378;2024-03-22T07:48:40;93178.47;;;9.29;71.68
52249;BME280;38541;48.130;8.378;2024-03-22T07:51:05;93170.75;;;9.39;71.68
52249;BME280;38541;48.130;8.378;2024-03-22T07:53:31;93170.06;;;9.49;71.45
52249;BME280;38541;48.130;8.378;2024-03-22T07:55:56;93169.13;;;9.61;71.28
52249;BME280;38541;48.130;8.378;2024-03-22T07:58:22;93175.84;;;9.74;71.11
52249;BME280;38541;48.130;8.378;2024-03-22T08:00:48;93167.53;;;9.82;70.66
52249;BME280;38541;48.130;8.378;2024-03-22T08:03:15;93164.97;;;9.87;70.08
52249;BME280;38541;48.130;8.378;2024-03-22T08:05:41;93163.72;;;9.95;69.88
52249;BME280;38541;48.130;8.378;2024-03-22T08:08:07;93154.94;;;10.06;69.29
52249;BME280;38541;48.130;8.378;2024-03-22T08:10:32;93153.19;;;10.17;68.87
52249;BME280;38541;48.130;8.378;2024-03-22T08:12:58;93143.81;;;10.26;67.86
52249;BME280;38541;48.130;8.378;2024-03-22T08:15:24;93146.03;;;10.40;67.22
52249;BME280;38541;48.130;8.378;2024-03-22T08:17:49;93140.88;;;10.50;67.12
52249;BME280;38541;48.130;8.378;2024-03-22T08:20:15;93134.66;;;10.62;65.94
52249;BME280;38541;48.130;8.378;2024-03-22T08:22:40;93132.88;;;10.73;64.32
52249;BME280;38541;48.130;8.378;2024-03-22T08:25:06;93128.50;;;10.83;63.36
52249;BME280;38541;48.130;8.378;2024-03-22T08:27:33;93142.25;;;11.01;62.96
52249;BME280;38541;48.130;8.378;2024-03-22T08:30:00;93131.81;;;11.11;61.35
52249;BME280;38541;48.130;8.378;2024-03-22T08:32:26;93133.97;;;11.25;61.17
52249;BME280;38541;48.130;8.378;2024-03-22T08:34:51;93132.97;;;11.31;59.23
52249;BME280;38541;48.130;8.378;2024-03-22T08:37:17;93125.63;;;11.38;58.85
52249;BME280;38541;48.130;8.378;2024-03-22T08:39:43;93125.13;;;11.47;58.16
52249;BME280;38541;48.130;8.378;2024-03-22T08:42:08;93130.13;;;11.53;57.92
52249;BME280;38541;48.130;8.378;2024-03-22T08:44:35;93127.28;;;11.65;57.61
52249;BME280;38541;48.130;8.378;2024-03-22T08:47:01;93120.72;;;11.73;56.96
52249;BME280;38541;48.130;8.378;2024-03-22T08:49:26;93114.44;;;11.84;56.94
52249;BME280;38541;48.130;8.378;2024-03-22T08:51:52;93117.59;;;11.87;56.98
52249;BME280;38541;48.130;8.378;2024-03-22T08:54:17;93113.66;;;11.94;56.01
52249;BME280;38541;48.130;8.378;2024-03-22T08:56:43;93112.41;;;12.07;56.09
52249;BME280;38541;48.130;8.378;2024-03-22T08:59:09;93105.31;;;12.13;55.18
52249;BME280;38541;48.130;8.378;2024-03-22T09:01:36;93108.47;;;12.15;55.55
52249;BME280;38541;48.130;8.378;2024-03-22T09:04:02;93102.41;;;12.15;55.25
52249;BME280;38541;48.130;8.378;2024-03-22T09:06:27;93104.78;;;12.16;54.46
52249;BME280;38541;48.130;8.378;2024-03-22T09:08:53;93096.38;;;12.24;53.77
52249;BME280;38541;48.130;8.378;2024-03-22T09:11:23;93103.19;;;12.36;53.50
52249;BME280;38541;48.130;8.378;2024-03-22T09:13:53;93094.25;;;12.42;52.94
52249;BME280;38541;48.130;8.378;2024-03-22T09:16:23;93084.47;;;12.48;51.30
52249;BME280;38541;48.130;8.378;2024-03-22T09:18:48;93080.53;;;12.55;51.76
52249;BME280;38541;48.130;8.378;2024-03-22T09:21:14;93079.19;;;12.63;51.01
52249;BME280;38541;48.130;8.378;2024-03-22T09:23:39;93081.03;;;12.73;51.11
52249;BME280;38541;48.130;8.378;2024-03-22T09:26:05;93079.72;;;12.76;50.70
52249;BME280;38541;48.130;8.378;2024-03-22T09:28:31;93088.66;;;12.85;50.29
52249;BME280;38541;48.130;8.378;2024-03-22T09:30:57;93076.78;;;12.88;50.17
52249;BME280;38541;48.130;8.378;2024-03-22T09:33:22;93079.13;;;12.99;50.05
52249;BME280;38541;48.130;8.378;2024-03-22T09:35:48;93073.56;;;13.06;49.48
52249;BME280;38541;48.130;8.378;2024-03-22T09:38:13;93065.38;;;13.13;49.26
52249;BME280;38541;48.130;8.378;2024-03-22T09:40:43;93058.75;;;13.16;49.78
52249;BME280;38541;48.130;8.378;2024-03-22T09:43:12;93052.94;;;13.24;49.84
52249;BME280;38541;48.130;8.378;2024-03-22T09:45:40;93053.41;;;13.31;49.67
52249;BME280;38541;48.130;8.378;2024-03-22T09:48:07;93060.53;;;13.36;48.20
52249;BME280;38541;48.130;8.378;2024-03-22T09:50:33;93054.16;;;13.42;48.23
52249;BME280;38541;48.130;8.378;2024-03-22T09:53:00;93061.56;;;13.50;48.08
52249;BME280;38541;48.130;8.378;2024-03-22T09:55:28;93055.69;;;13.59;48.78
52249;BME280;38541;48.130;8.378;2024-03-22T09:57:55;93055.88;;;13.73;47.92
52249;BME280;38541;48.130;8.378;2024-03-22T10:00:21;93050.78;;;13.81;47.14
52249;BME280;38541;48.130;8.378;2024-03-22T10:02:51;93043.06;;;13.95;47.10
52249;BME280;38541;48.130;8.378;2024-03-22T10:05:17;93042.47;;;14.04;47.72
52249;BME280;38541;48.130;8.378;2024-03-22T10:07:45;93045.34;;;14.07;47.28
52249;BME280;38541;48.130;8.378;2024-03-22T10:10:11;93041.84;;;14.17;46.67
52249;BME280;38541;48.130;8.378;2024-03-22T10:12:37;93034.25;;;14.40;47.58
52249;BME280;38541;48.130;8.378;2024-03-22T10:15:05;93040.91;;;14.62;47.34
52249;BME280;38541;48.130;8.378;2024-03-22T10:17:31;93040.19;;;14.86;47.67
52249;BME280;38541;48.130;8.378;2024-03-22T10:19:57;93036.09;;;14.98;45.15
52249;BME280;38541;48.130;8.378;2024-03-22T10:22:22;93033.56;;;15.12;45.35
52249;BME280;38541;48.130;8.378;2024-03-22T10:24:50;93035.94;;;15.33;44.16
52249;BME280;38541;48.130;8.378;2024-03-22T10:27:16;93034.75;;;15.45;42.05
52249;BME280;38541;48.130;8.378;2024-03-22T10:29:43;93033.03;;;15.54;41.34
52249;BME280;38541;48.130;8.378;2024-03-22T10:32:09;93024.88;;;15.69;40.22
52249;BME280;38541;48.130;8.378;2024-03-22T10:34:35;93027.09;;;15.81;40.26
52249;BME280;38541;48.130;8.378;2024-03-22T10:37:01;93015.84;;;16.09;40.92
52249;BME280;38541;48.130;8.378;2024-03-22T10:39:27;93018.63;;;16.18;40.74
52249;BME280;38541;48.130;8.378;2024-03-22T10:41:54;93012.13;;;16.43;40.59
52249;BME280;38541;48.130;8.378;2024-03-22T10:44:20;93011.03;;;16.44;37.96
52249;BME280;38541;48.130;8.378;2024-03-22T10:46:49;93006.56;;;16.59;38.30
52249;BME280;38541;48.130;8.378;2024-03-22T10:49:16;93001.44;;;16.62;36.95
52249;BME280;38541;48.130;8.378;2024-03-22T10:51:49;93005.09;;;16.80;37.78
52249;BME280;38541;48.130;8.378;2024-03-22T10:54:21;92998.50;;;16.92;37.93
52249;BME280;38541;48.130;8.378;2024-03-22T10:56:48;92991.97;;;17.03;36.59
52249;BME280;38541;48.130;8.378;2024-03-22T10:59:18;92986.94;;;17.16;37.30
52249;BME280;38541;48.130;8.378;2024-03-22T11:01:49;92981.22;;;17.08;35.01
52249;BME280;38541;48.130;8.378;2024-03-22T11:04:16;92980.63;;;17.11;35.75
52249;BME280;38541;48.130;8.378;2024-03-22T11:06:47;92972.97;;;17.24;35.95
52249;BME280;38541;48.130;8.378;2024-03-22T11:09:24;92975.25;;;17.53;35.03
52249;BME280;38541;48.130;8.378;2024-03-22T11:11:55;92977.50;;;17.60;35.02
52249;BME280;38541;48.130;8.378;2024-03-22T11:14:22;92976.31;;;17.02;32.54
52249;BME280;38541;48.130;8.378;2024-03-22T11:16:50;92973.31;;;17.31;31.67
52249;BME280;38541;48.130;8.378;2024-03-22T11:19:16;92973.31;;;17.45;31.72
52249;BME280;38541;48.130;8.378;2024-03-22T11:21:42;92961.91;;;17.45;32.03
52249;BME280;38541;48.130;8.378;2024-03-22T11:24:07;92961.16;;;17.67;31.39
52249;BME280;38541;48.130;8.378;2024-03-22T11:26:33;92958.22;;;17.91;30.71
52249;BME280;38541;48.130;8.378;2024-03-22T11:29:00;92949.03;;;18.20;31.29
52249;BME280;38541;48.130;8.378;2024-03-22T11:31:26;92955.09;;;18.12;28.33
52249;BME280;38541;48.130;8.378;2024-03-22T11:33:55;92943.47;;;18.31;28.77
52249;BME280;38541;48.130;8.378;2024-03-22T11:36:22;92930.31;;;18.75;29.18
52249;BME280;38541;48.130;8.378;2024-03-22T11:38:48;92932.72;;;18.94;29.27
52249;BME280;38541;48.130;8.378;2024-03-22T11:41:34;92937.59;;;18.92;28.59
52249;BME280;38541;48.130;8.378;2024-03-22T11:44:00;92924.22;;;19.32;28.90
52249;BME280;38541;48.130;8.378;2024-03-22T11:46:26;92924.06;;;19.55;28.51
52249;BME280;38541;48.130;8.378;2024-03-22T11:48:53;92919.66;;;19.15;27.93
52249;BME280;38541;48.130;8.378;2024-03-22T11:51:19;92928.34;;;18.98;25.77
52249;BME280;38541;48.130;8.378;2024-03-22T11:53:51;92916.84;;;18.71;24.87
52249;BME280;38541;48.130;8.378;2024-03-22T11:56:19;92913.25;;;18.67;26.78
52249;BME280;38541;48.130;8.378;2024-03-22T11:58:48;92906.84;;;18.68;27.29
52249;BME280;38541;48.130;8.378;2024-03-22T12:01:15;92898.50;;;18.61;28.42
52249;BME280;38541;48.130;8.378;2024-03-22T12:03:43;92896.50;;;18.75;27.98
52249;BME280;38541;48.130;8.378;2024-03-22T12:06:10;92897.72;;;19.27;28.00
52249;BME280;38541;48.130;8.378;2024-03-22T12:08:39;92892.69;;;19.87;26.97
52249;BME280;38541;48.130;8.378;2024-03-22T12:11:09;92892.88;;;19.64;23.29
52249;BME280;38541;48.130;8.378;2024-03-22T12:13:38;92889.63;;;18.74;24.92
52249;BME280;38541;48.130;8.378;2024-03-22T12:16:04;92885.81;;;18.58;26.51
52249;BME280;38541;48.130;8.378;2024-03-22T12:18:30;92880.28;;;18.45;24.96
52249;BME280;38541;48.130;8.378;2024-03-22T12:20:56;92880.69;;;18.70;25.39
52249;BME280;38541;48.130;8.378;2024-03-22T12:23:22;92877.03;;;19.06;24.52
52249;BME280;38541;48.130;8.378;2024-03-22T12:25:48;92868.78;;;18.76;23.35
52249;BME280;38541;48.130;8.378;2024-03-22T12:28:14;92863.72;;;19.24;24.81
52249;BME280;38541;48.130;8.378;2024-03-22T12:30:40;92863.56;;;19.29;25.77
52249;BME280;38541;48.130;8.378;2024-03-22T12:33:08;92855.22;;;19.57;24.60
52249;BME280;38541;48.130;8.378;2024-03-22T12:35:36;92859.47;;;19.58;27.43
52249;BME280;38541;48.130;8.378;2024-03-22T12:38:02;92861.03;;;19.42;27.17
52249;BME280;38541;48.130;8.378;2024-03-22T12:40:29;92855.69;;;19.59;29.56
52249;BME280;38541;48.130;8.378;2024-03-22T12:42:55;92850.69;;;19.66;29.28
52249;BME280;38541;48.130;8.378;2024-03-22T12:45:21;92845.34;;;19.66;28.24
52249;BME280;38541;48.130;8.378;2024-03-22T12:47:47;92851.31;;;19.72;28.03
52249;BME280;38541;48.130;8.378;2024-03-22T12:50:12;92844.69;;;19.87;27.38
52249;BME280;38541;48.130;8.378;2024-03-22T12:52:39;92844.38;;;19.98;28.29
52249;BME280;38541;48.130;8.378;2024-03-22T12:55:05;92835.88;;;20.04;28.90
52249;BME280;38541;48.130;8.378;2024-03-22T12:57:32;92840.03;;;20.23;28.66
52249;BME280;38541;48.130;8.378;2024-03-22T12:59:58;92847.38;;;20.35;28.28
52249;BME280;38541;48.130;8.378;2024-03-22T13:02:24;92829.91;;;20.46;28.80